createdAt,value
2019-05-25T00:00:25.451Z,52.70
2019-05-25T00:02:54.361Z,52.90
2019-05-25T00:05:23.426Z,52.80
2019-05-25T00:07:52.343Z,52.60
2019-05-25T00:10:21.265Z,52.70
2019-05-25T00:12:50.173Z,52.70
2019-05-25T00:15:19.095Z,52.40
2019-05-25T00:17:47.940Z,52.40
2019-05-25T00:20:16.826Z,52.60
2019-05-25T00:22:45.686Z,52.80
2019-05-25T00:25:14.682Z,52.60
2019-05-25T00:27:43.570Z,52.40
2019-05-25T00:30:12.582Z,52.50
2019-05-25T00:32:41.473Z,52.70
2019-05-25T00:35:10.447Z,52.40
2019-05-25T00:37:39.331Z,52.40
2019-05-25T00:40:08.817Z,52.30
2019-05-25T00:42:37.693Z,52.50
2019-05-25T00:45:07.731Z,52.60
2019-05-25T00:47:36.596Z,52.80
2019-05-25T00:50:06.155Z,52.70
2019-05-25T00:52:35.009Z,52.10
2019-05-25T00:55:04.139Z,52.10
2019-05-25T00:57:32.987Z,52.10
2019-05-25T01:00:01.917Z,52.00
2019-05-25T01:02:30.894Z,51.90
2019-05-25T01:04:59.799Z,51.90
2019-05-25T01:07:28.673Z,51.80
2019-05-25T01:09:57.582Z,52.10
2019-05-25T01:12:26.523Z,52.50
2019-05-25T01:14:55.408Z,52.50
2019-05-25T01:17:24.406Z,52.10
2019-05-25T01:19:53.401Z,52.30
2019-05-25T01:22:22.326Z,52.40
2019-05-25T01:24:51.226Z,52.30
2019-05-25T01:27:20.138Z,52.00
2019-05-25T01:29:49.105Z,51.70
2019-05-25T01:32:18.118Z,51.70
2019-05-25T01:34:46.948Z,51.80
2019-05-25T01:37:15.870Z,52.00
2019-05-25T01:39:44.686Z,51.90
2019-05-25T01:42:13.534Z,52.40
2019-05-25T01:44:42.472Z,52.00
2019-05-25T01:47:11.468Z,51.90
2019-05-25T01:49:40.321Z,52.10
2019-05-25T01:52:09.137Z,52.30
2019-05-25T01:54:37.990Z,52.00
2019-05-25T01:57:06.923Z,51.70
2019-05-25T01:59:35.753Z,51.70
2019-05-25T02:02:04.727Z,52.10
2019-05-25T02:04:33.731Z,52.10
2019-05-25T02:07:02.651Z,52.20
2019-05-25T02:09:31.567Z,52.30
2019-05-25T02:12:00.731Z,51.70
2019-05-25T02:14:29.739Z,51.90
2019-05-25T02:16:58.631Z,51.70
2019-05-25T02:19:27.603Z,51.20
2019-05-25T02:21:56.450Z,51.10
2019-05-25T02:24:25.428Z,51.30
2019-05-25T02:26:54.378Z,51.50
2019-05-25T02:29:23.479Z,51.30
2019-05-25T02:31:52.400Z,51.10
2019-05-25T02:34:21.234Z,51.30
2019-05-25T02:36:50.204Z,51.30
2019-05-25T02:39:19.121Z,51.40
2019-05-25T02:41:47.946Z,51.50
2019-05-25T02:44:16.954Z,51.40
2019-05-25T02:46:45.855Z,51.50
2019-05-25T02:49:14.698Z,51.40
2019-05-25T02:51:43.543Z,51.60
2019-05-25T02:54:12.454Z,51.70
2019-05-25T02:56:41.465Z,51.80
2019-05-25T02:59:10.371Z,51.80
2019-05-25T03:01:39.298Z,51.80
2019-05-25T03:04:08.277Z,52.00
2019-05-25T03:06:38.292Z,52.20
2019-05-25T03:09:07.483Z,52.10
2019-05-25T03:11:37.277Z,52.40
2019-05-25T03:14:06.275Z,52.40
2019-05-25T03:16:35.206Z,52.40
2019-05-25T03:19:04.184Z,52.40
2019-05-25T03:21:33.096Z,52.50
2019-05-25T03:24:02.106Z,52.50
2019-05-25T03:26:31.015Z,52.50
2019-05-25T03:28:59.925Z,52.60
2019-05-25T03:31:28.751Z,52.60
2019-05-25T03:33:57.603Z,52.60
2019-05-25T03:36:26.587Z,52.80
2019-05-25T03:38:55.432Z,52.70
2019-05-25T03:41:24.371Z,52.60
2019-05-25T03:43:53.235Z,52.60
2019-05-25T03:46:22.332Z,52.60
2019-05-25T03:48:51.321Z,52.60
2019-05-25T03:51:20.374Z,52.80
2019-05-25T03:53:49.193Z,52.80
2019-05-25T03:56:18.201Z,52.80
2019-05-25T03:58:47.098Z,52.70
2019-05-25T04:01:15.967Z,52.80
2019-05-25T04:03:44.822Z,52.90
2019-05-25T04:06:13.746Z,53.00
2019-05-25T04:08:42.667Z,53.00
2019-05-25T04:11:11.500Z,53.00
2019-05-25T04:13:40.435Z,53.10
2019-05-25T04:16:09.352Z,53.30
2019-05-25T04:18:38.216Z,53.10
2019-05-25T04:21:07.044Z,53.30
2019-05-25T04:23:35.935Z,53.30
2019-05-25T04:26:19.612Z,53.80
2019-05-25T04:28:35.524Z,53.30
2019-05-25T04:31:04.902Z,53.40
2019-05-25T04:33:33.748Z,53.60
2019-05-25T04:36:02.638Z,53.60
2019-05-25T04:38:31.592Z,53.50
2019-05-25T04:41:00.598Z,53.20
2019-05-25T04:43:29.524Z,53.30
2019-05-25T04:45:58.344Z,53.50
2019-05-25T04:48:27.277Z,53.40
2019-05-25T04:50:56.226Z,53.30
2019-05-25T04:53:25.040Z,53.50
2019-05-25T04:55:53.879Z,53.50
2019-05-25T04:58:22.871Z,53.50
2019-05-25T05:00:51.790Z,53.40
2019-05-25T05:03:20.618Z,53.30
2019-05-25T05:05:49.542Z,53.40
2019-05-25T05:08:18.349Z,53.50
2019-05-25T05:10:47.182Z,53.80
2019-05-25T05:13:16.021Z,54.00
2019-05-25T05:15:44.853Z,53.30
2019-05-25T05:18:13.698Z,53.50
2019-05-25T05:20:42.529Z,53.20
2019-05-25T05:23:11.363Z,52.80
2019-05-25T05:25:40.323Z,52.80
2019-05-25T05:28:09.243Z,53.00
2019-05-25T05:30:38.217Z,53.30
2019-05-25T05:33:07.161Z,53.10
2019-05-25T05:35:38.983Z,53.20
2019-05-25T05:38:08.323Z,53.20
2019-05-25T05:40:57.190Z,53.20
2019-05-25T05:43:29.040Z,53.00
2019-05-25T05:46:00.473Z,52.80
2019-05-25T05:48:32.669Z,52.80
2019-05-25T05:51:01.875Z,52.90
2019-05-25T05:53:32.356Z,53.00
2019-05-25T05:56:01.283Z,52.50
2019-05-25T05:58:30.166Z,52.40
2019-05-25T06:00:59.180Z,52.40
2019-05-25T06:03:28.135Z,52.30
2019-05-25T06:05:57.081Z,52.10
2019-05-25T06:08:25.931Z,51.60
2019-05-25T06:10:54.785Z,51.30
2019-05-25T06:13:23.718Z,51.40
2019-05-25T06:15:55.789Z,51.40
2019-05-25T06:18:23.382Z,51.70
2019-05-25T06:20:52.230Z,51.80
2019-05-25T06:23:21.172Z,51.70
2019-05-25T06:25:50.119Z,51.70
2019-05-25T06:28:22.381Z,51.40
2019-05-25T06:30:49.777Z,51.40
2019-05-25T06:33:18.710Z,51.50
2019-05-25T06:35:47.637Z,51.50
2019-05-25T06:38:16.478Z,51.50
2019-05-25T06:40:45.508Z,51.70
2019-05-25T06:43:14.493Z,51.80
2019-05-25T06:45:43.562Z,51.70
2019-05-25T06:48:12.586Z,51.50
2019-05-25T06:50:41.656Z,51.40
2019-05-25T06:53:10.743Z,51.20
2019-05-25T06:55:39.611Z,51.00
2019-05-25T06:58:08.480Z,51.00
2019-05-25T07:00:37.366Z,50.80
2019-05-25T07:03:06.342Z,50.90
2019-05-25T07:05:35.318Z,50.90
2019-05-25T07:08:04.352Z,51.00
2019-05-25T07:10:33.314Z,50.70
2019-05-25T07:13:02.806Z,50.60
2019-05-25T07:15:31.787Z,50.50
2019-05-25T07:18:00.751Z,50.50
2019-05-25T07:20:29.851Z,51.00
2019-05-25T07:22:58.790Z,50.50
2019-05-25T07:25:27.745Z,50.50
2019-05-25T07:28:00.135Z,50.80
2019-05-25T07:30:27.447Z,50.70
2019-05-25T07:32:56.540Z,50.90
2019-05-25T07:35:25.542Z,50.90
2019-05-25T07:37:54.548Z,51.20
2019-05-25T07:40:23.545Z,51.10
2019-05-25T07:42:52.510Z,51.20
2019-05-25T07:45:21.546Z,51.30
2019-05-25T07:47:50.496Z,51.10
2019-05-25T07:50:19.960Z,51.10
2019-05-25T07:52:51.279Z,50.90
2019-05-25T07:55:20.367Z,51.10
2019-05-25T07:57:51.842Z,51.30
2019-05-25T08:00:20.963Z,51.30
2019-05-25T08:02:49.975Z,51.40
2019-05-25T08:05:19.828Z,51.60
2019-05-25T08:07:48.839Z,51.70
2019-05-25T08:10:17.813Z,51.70
2019-05-25T08:12:46.896Z,51.50
2019-05-25T08:15:16.595Z,51.40
2019-05-25T08:17:45.682Z,51.50
2019-05-25T08:20:15.119Z,51.60
2019-05-25T08:22:44.213Z,51.70
2019-05-25T08:25:13.786Z,51.60
2019-05-25T08:27:42.753Z,51.70
2019-05-25T08:30:11.760Z,51.60
2019-05-25T08:32:40.855Z,51.60
2019-05-25T08:35:09.835Z,51.80
2019-05-25T08:37:42.021Z,51.70
2019-05-25T08:40:12.178Z,51.60
2019-05-25T08:42:41.080Z,51.60
2019-05-25T08:45:10.525Z,51.40
2019-05-25T08:47:39.525Z,51.30
2019-05-25T08:50:09.204Z,51.20
2019-05-25T08:52:38.391Z,51.60
2019-05-25T08:55:08.270Z,51.70
2019-05-25T08:57:37.240Z,51.60
2019-05-25T09:00:08.119Z,51.70
2019-05-25T09:02:37.214Z,51.90
2019-05-25T09:05:06.934Z,52.20
2019-05-25T09:07:37.857Z,51.70
2019-05-25T09:10:07.618Z,51.60
2019-05-25T09:12:36.651Z,51.20
2019-05-25T09:15:06.285Z,51.00
2019-05-25T09:17:35.154Z,51.00
2019-05-25T09:20:04.582Z,51.10
2019-05-25T09:22:33.644Z,51.00
2019-05-25T09:25:02.595Z,50.90
2019-05-25T09:27:31.525Z,51.20
2019-05-25T09:30:00.506Z,51.40
2019-05-25T09:32:29.900Z,51.60
2019-05-25T09:34:58.846Z,51.30
2019-05-25T09:37:27.744Z,51.00
2019-05-25T09:39:56.658Z,51.00
2019-05-25T09:42:25.566Z,51.30
2019-05-25T09:44:54.444Z,51.10
2019-05-25T09:47:23.405Z,51.20
2019-05-25T09:49:52.238Z,51.30
2019-05-25T09:52:21.098Z,51.30
2019-05-25T09:54:51.696Z,51.20
2019-05-25T09:57:20.810Z,51.20
2019-05-25T09:59:49.658Z,50.90
2019-05-25T10:02:18.689Z,50.70
2019-05-25T10:04:47.608Z,51.00
2019-05-25T10:07:16.646Z,51.60
2019-05-25T10:09:45.485Z,51.40
2019-05-25T10:12:16.273Z,51.20
2019-05-25T10:14:44.971Z,51.20
2019-05-25T10:17:13.866Z,51.20
2019-05-25T10:19:42.771Z,51.30
2019-05-25T10:22:11.685Z,51.20
2019-05-25T10:24:40.536Z,51.10
2019-05-25T10:27:09.391Z,51.40
2019-05-25T10:29:38.241Z,51.40
2019-05-25T10:32:07.242Z,51.30
2019-05-25T10:34:36.166Z,51.50
2019-05-25T10:37:05.162Z,51.50
2019-05-25T10:39:34.144Z,51.30
2019-05-25T10:42:03.148Z,51.10
2019-05-25T10:44:32.126Z,51.10
2019-05-25T10:47:01.129Z,51.20
2019-05-25T10:49:30.384Z,50.90
2019-05-25T10:51:59.329Z,50.60
2019-05-25T10:54:28.188Z,50.70
2019-05-25T10:56:57.126Z,50.30
2019-05-25T10:59:26.055Z,50.10
2019-05-25T11:01:54.951Z,50.10
2019-05-25T11:04:23.859Z,50.10
2019-05-25T11:06:52.723Z,50.20
2019-05-25T11:09:21.550Z,49.90
2019-05-25T11:11:50.505Z,49.80
2019-05-25T11:14:19.432Z,49.90
2019-05-25T11:16:48.359Z,49.80
2019-05-25T11:19:17.311Z,49.70
2019-05-25T11:21:46.199Z,49.60
2019-05-25T11:24:15.039Z,49.50
2019-05-25T11:26:43.873Z,49.20
2019-05-25T11:29:12.874Z,49.40
2019-05-25T11:31:41.803Z,49.30
2019-05-25T11:34:10.743Z,49.50
2019-05-25T11:36:39.610Z,49.40
2019-05-25T11:39:08.529Z,49.40
2019-05-25T11:41:37.530Z,49.40
2019-05-25T11:44:06.493Z,49.30
2019-05-25T11:46:35.422Z,49.20
2019-05-25T11:49:04.651Z,49.10
2019-05-25T11:51:33.553Z,49.00
2019-05-25T11:54:02.458Z,48.80
2019-05-25T11:56:31.354Z,48.90
2019-05-25T11:59:19.479Z,49.00
2019-05-25T12:01:48.386Z,48.90
2019-05-25T12:04:17.313Z,49.20
2019-05-25T12:06:46.191Z,49.00
2019-05-25T12:09:15.067Z,49.10
2019-05-25T12:11:43.986Z,49.20
2019-05-25T12:14:12.923Z,49.20
2019-05-25T12:16:41.814Z,49.40
2019-05-25T12:19:14.613Z,49.30
2019-05-25T12:21:41.670Z,49.50
2019-05-25T12:24:10.635Z,49.50
2019-05-25T12:26:39.621Z,49.50
2019-05-25T12:29:08.571Z,49.40
2019-05-25T12:31:37.523Z,49.30
2019-05-25T12:34:06.591Z,49.30
2019-05-25T12:36:35.522Z,49.30
2019-05-25T12:39:06.064Z,49.40
2019-05-25T12:41:35.015Z,49.30
2019-05-25T12:44:04.075Z,49.30
2019-05-25T12:46:32.975Z,49.30
2019-05-25T12:49:02.011Z,49.20
2019-05-25T12:51:31.004Z,49.00
2019-05-25T12:53:59.996Z,49.00
2019-05-25T12:56:28.946Z,49.00
2019-05-25T12:58:57.966Z,49.10
2019-05-25T13:01:27.053Z,48.90
2019-05-25T13:03:55.965Z,49.00
2019-05-25T13:06:24.913Z,49.00
2019-05-25T13:08:53.781Z,49.00
2019-05-25T13:11:22.785Z,49.10
2019-05-25T13:13:51.895Z,49.10
2019-05-25T13:16:20.824Z,49.10
2019-05-25T13:18:49.855Z,48.90
2019-05-25T13:21:19.929Z,48.80
2019-05-25T13:23:48.803Z,48.80
2019-05-25T13:26:17.773Z,48.80
2019-05-25T13:28:46.726Z,48.60
2019-05-25T13:31:15.609Z,48.50
2019-05-25T13:33:44.480Z,48.50
2019-05-25T13:36:13.520Z,48.40
2019-05-25T13:38:42.446Z,48.30
2019-05-25T13:41:11.411Z,48.50
2019-05-25T13:43:40.440Z,48.40
2019-05-25T13:46:09.415Z,48.30
2019-05-25T13:48:38.477Z,48.20
2019-05-25T13:51:07.451Z,47.90
2019-05-25T13:53:36.793Z,48.00
2019-05-25T13:56:05.727Z,48.00
2019-05-25T13:58:34.693Z,47.80
2019-05-25T14:01:03.737Z,47.80
2019-05-25T14:03:32.805Z,47.90
2019-05-25T14:06:01.732Z,47.70
2019-05-25T14:08:30.713Z,47.80
2019-05-25T14:10:59.758Z,47.80
2019-05-25T14:13:28.830Z,47.80
2019-05-25T14:16:06.640Z,47.80
2019-05-25T14:18:30.255Z,47.70
2019-05-25T14:20:59.339Z,47.80
2019-05-25T14:23:28.439Z,47.80
2019-05-25T14:25:57.507Z,47.50
2019-05-25T14:28:26.467Z,47.60
2019-05-25T14:30:55.542Z,47.60
2019-05-25T14:33:24.696Z,47.60
2019-05-25T14:35:53.754Z,47.70
2019-05-25T14:38:22.868Z,47.70
2019-05-25T14:40:51.791Z,47.70
2019-05-25T14:43:20.859Z,47.80
2019-05-25T14:45:53.180Z,47.80
2019-05-25T14:48:20.563Z,47.70
2019-05-25T14:50:49.569Z,47.20
2019-05-25T14:53:18.574Z,47.50
2019-05-25T14:55:47.557Z,47.60
2019-05-25T14:58:16.543Z,47.70
2019-05-25T15:00:45.474Z,47.70
2019-05-25T15:03:14.409Z,47.50
2019-05-25T15:05:43.414Z,47.50
2019-05-25T15:08:12.373Z,47.50
2019-05-25T15:10:41.430Z,47.60
2019-05-25T15:13:10.358Z,47.50
2019-05-25T15:15:39.399Z,47.50
2019-05-25T15:18:08.353Z,47.50
2019-05-25T15:20:37.938Z,47.50
2019-05-25T15:23:06.903Z,47.30
2019-05-25T15:25:35.933Z,47.40
2019-05-25T15:28:04.840Z,47.40
2019-05-25T15:30:33.810Z,47.50
2019-05-25T15:33:02.655Z,47.50
2019-05-25T15:35:31.479Z,47.30
2019-05-25T15:38:00.411Z,47.40
2019-05-25T15:40:29.327Z,47.40
2019-05-25T15:42:58.190Z,47.10
2019-05-25T15:45:27.115Z,47.10
2019-05-25T15:47:55.962Z,47.10
2019-05-25T15:50:24.972Z,47.00
2019-05-25T15:52:56.532Z,47.10
2019-05-25T15:55:24.722Z,46.70
2019-05-25T15:57:53.622Z,46.80
2019-05-25T16:00:25.680Z,47.00
2019-05-25T16:02:54.524Z,47.10
2019-05-25T16:05:23.435Z,47.10
2019-05-25T16:07:53.850Z,47.30
2019-05-25T16:10:22.914Z,47.30
2019-05-25T16:12:51.741Z,47.30
2019-05-25T16:15:27.711Z,47.00
2019-05-25T16:17:56.526Z,47.10
2019-05-25T16:20:25.467Z,46.90
2019-05-25T16:22:54.466Z,47.10
2019-05-25T16:25:23.455Z,47.00
2019-05-25T16:27:52.359Z,47.10
2019-05-25T16:30:21.395Z,47.20
2019-05-25T16:35:21.799Z,47.00
2019-05-25T16:37:50.915Z,47.10
2019-05-25T16:40:20.667Z,46.90
2019-05-25T16:42:49.578Z,47.00
2019-05-25T16:45:18.667Z,47.00
2019-05-25T16:47:47.591Z,47.00
2019-05-25T16:50:18.635Z,46.90
2019-05-25T16:52:47.621Z,46.90
2019-05-25T16:55:16.610Z,46.90
2019-05-25T16:57:45.678Z,47.00
2019-05-25T17:00:18.163Z,47.00
2019-05-25T17:02:47.195Z,47.00
2019-05-25T17:05:16.123Z,47.00
2019-05-25T17:07:45.015Z,47.00
2019-05-25T17:10:14.002Z,46.90
2019-05-25T17:12:42.841Z,46.90
2019-05-25T17:15:11.835Z,46.90
2019-05-25T17:17:40.673Z,46.90
2019-05-25T17:20:09.680Z,46.70
2019-05-25T17:22:38.582Z,46.70
2019-05-25T17:25:09.319Z,46.60
2019-05-25T17:27:38.310Z,46.70
2019-05-25T17:30:09.423Z,46.70
2019-05-25T17:32:38.389Z,46.50
2019-05-25T17:35:07.528Z,46.50
2019-05-25T17:37:36.457Z,46.70
2019-05-25T17:40:05.970Z,46.50
2019-05-25T17:42:34.934Z,46.60
2019-05-25T17:45:03.867Z,46.50
2019-05-25T17:47:32.842Z,46.50
2019-05-25T17:50:01.783Z,46.60
2019-05-25T17:52:30.710Z,46.50
2019-05-25T17:54:59.571Z,46.50
2019-05-25T17:57:28.414Z,46.40
2019-05-25T17:59:59.466Z,46.60
2019-05-25T18:02:27.843Z,46.50
2019-05-25T18:04:56.667Z,46.40
2019-05-25T18:07:25.498Z,46.40
2019-05-25T18:09:54.539Z,46.10
2019-05-25T18:12:25.690Z,46.20
2019-05-25T18:14:54.507Z,45.90
2019-05-25T18:17:23.432Z,46.10
2019-05-25T18:19:52.403Z,46.30
2019-05-25T18:22:21.334Z,46.40
2019-05-25T18:24:50.260Z,46.30
2019-05-25T18:27:19.730Z,46.50
2019-05-25T18:29:48.667Z,46.40
2019-05-25T18:32:17.597Z,46.70
2019-05-25T18:34:46.579Z,46.60
2019-05-25T18:37:15.410Z,46.40
2019-05-25T18:39:44.237Z,46.40
2019-05-25T18:42:13.103Z,46.40
2019-05-25T18:44:41.976Z,46.50
2019-05-25T18:47:10.841Z,45.90
2019-05-25T18:49:39.765Z,45.70
2019-05-25T18:52:08.608Z,45.70
2019-05-25T18:54:37.462Z,45.80
2019-05-25T18:57:09.341Z,45.70
2019-05-25T18:59:37.200Z,45.70
2019-05-25T19:02:06.200Z,45.60
2019-05-25T19:04:44.861Z,45.60
2019-05-25T19:07:05.998Z,45.60
2019-05-25T19:09:34.851Z,45.90
2019-05-25T19:12:03.869Z,46.00
2019-05-25T19:14:32.736Z,46.00
2019-05-25T19:17:01.739Z,46.00
2019-05-25T19:19:30.774Z,46.00
2019-05-25T19:21:59.617Z,46.00
2019-05-25T19:24:28.518Z,46.10
2019-05-25T19:26:57.407Z,46.00
2019-05-25T19:29:26.339Z,46.00
2019-05-25T19:31:55.261Z,46.10
2019-05-25T19:34:24.183Z,46.50
2019-05-25T19:36:53.098Z,46.50
2019-05-25T19:39:22.090Z,46.70
2019-05-25T19:41:50.995Z,46.80
2019-05-25T19:44:19.898Z,46.90
2019-05-25T19:46:48.786Z,47.10
2019-05-25T19:49:17.625Z,47.20
2019-05-25T19:51:46.446Z,47.30
2019-05-25T19:54:15.327Z,47.60
2019-05-25T19:56:44.224Z,47.80
2019-05-25T19:59:13.145Z,48.00
2019-05-25T20:01:42.063Z,48.20
2019-05-25T20:04:11.003Z,48.10
2019-05-25T20:06:39.855Z,48.30
2019-05-25T20:09:08.845Z,48.70
2019-05-25T20:11:37.711Z,48.60
2019-05-25T20:14:06.699Z,49.00
2019-05-25T20:16:35.549Z,49.00
2019-05-25T20:19:04.563Z,49.10
2019-05-25T20:21:33.511Z,49.20
2019-05-25T20:24:02.432Z,49.30
2019-05-25T20:26:31.286Z,49.30
2019-05-25T20:29:00.208Z,49.30
2019-05-25T20:31:29.219Z,49.40
2019-05-25T20:33:58.082Z,49.60
2019-05-25T20:36:26.982Z,49.50
2019-05-25T20:38:55.906Z,49.60
2019-05-25T20:41:24.859Z,49.50
2019-05-25T20:43:53.834Z,49.70
2019-05-25T20:46:22.703Z,49.60
2019-05-25T20:48:51.634Z,49.60
2019-05-25T20:51:20.597Z,49.80
2019-05-25T20:53:49.446Z,49.90
2019-05-25T20:56:18.438Z,50.00
2019-05-25T20:58:47.275Z,50.20
2019-05-25T21:01:16.268Z,50.30
2019-05-25T21:03:45.213Z,50.50
2019-05-25T21:06:14.214Z,50.50
2019-05-25T21:08:43.042Z,50.70
2019-05-25T21:11:11.915Z,50.80
2019-05-25T21:13:41.058Z,50.80
2019-05-25T21:16:09.974Z,50.90
2019-05-25T21:18:38.837Z,51.10
2019-05-25T21:21:07.761Z,51.20
2019-05-25T21:23:36.755Z,51.40
2019-05-25T21:26:05.751Z,51.50
2019-05-25T21:28:34.640Z,51.40
2019-05-25T21:31:03.649Z,51.60
2019-05-25T21:33:32.481Z,51.70
2019-05-25T21:36:08.102Z,51.80
2019-05-25T21:38:31.982Z,52.10
2019-05-25T21:41:00.925Z,52.20
2019-05-25T21:43:29.776Z,52.30
2019-05-25T21:45:58.648Z,52.20
2019-05-25T21:48:27.487Z,52.30
2019-05-25T21:50:56.342Z,52.40
2019-05-25T21:53:25.264Z,52.50
2019-05-25T21:55:54.187Z,52.00
2019-05-25T21:58:23.179Z,52.70
2019-05-25T22:00:52.305Z,53.40
2019-05-25T22:03:21.291Z,52.80
2019-05-25T22:05:50.444Z,52.80
2019-05-25T22:08:19.423Z,52.90
2019-05-25T22:10:48.418Z,53.00
2019-05-25T22:13:27.946Z,53.20
2019-05-25T22:15:47.926Z,53.30
2019-05-25T22:18:16.787Z,53.50
2019-05-25T22:20:45.838Z,53.70
2019-05-25T22:23:14.774Z,53.70
2019-05-25T22:25:44.262Z,53.70
2019-05-25T22:28:13.125Z,53.60
2019-05-25T22:30:42.020Z,53.90
2019-05-25T22:33:10.942Z,54.10
2019-05-25T22:35:39.789Z,54.10
2019-05-25T22:38:08.650Z,54.30
2019-05-25T22:40:37.565Z,54.30
2019-05-25T22:43:06.614Z,54.30
2019-05-25T22:45:35.454Z,54.40
2019-05-25T22:48:04.453Z,54.40
2019-05-25T22:50:33.370Z,54.40
2019-05-25T22:53:02.284Z,54.40
2019-05-25T22:55:31.213Z,54.50
2019-05-25T22:58:00.102Z,54.50
2019-05-25T23:00:29.076Z,54.70
2019-05-25T23:02:57.942Z,54.80
2019-05-25T23:05:26.876Z,54.70
2019-05-25T23:07:55.735Z,54.90
2019-05-25T23:10:24.655Z,55.00
2019-05-25T23:12:53.651Z,55.00
2019-05-25T23:15:22.732Z,55.00
2019-05-25T23:17:51.692Z,55.10
2019-05-25T23:20:20.621Z,55.20
2019-05-25T23:22:49.539Z,55.30
2019-05-25T23:25:18.477Z,55.40
2019-05-25T23:27:47.458Z,55.50
2019-05-25T23:30:16.464Z,55.50
2019-05-25T23:32:45.299Z,55.60
2019-05-25T23:35:14.407Z,55.70
2019-05-25T23:37:43.234Z,55.70
2019-05-25T23:40:12.636Z,55.70
2019-05-25T23:42:41.582Z,55.90
2019-05-25T23:45:11.372Z,56.00
2019-05-25T23:47:40.302Z,56.00
2019-05-25T23:50:11.190Z,56.10
2019-05-25T23:52:40.166Z,56.10
2019-05-25T23:55:09.409Z,56.30
2019-05-25T23:57:38.308Z,56.20
